Latest Weather Observations for Gooseberry Hill

IDW60801

Issued at 10:03 am WST Tuesday 22 September 2020 (issued every 10 minutes, with the page automatically refreshed every 10 minutes)

About weather observations | Map of weather stations | Latest weather observations for WA | Other Formats
Station Details ID: 009204 Name: GOOSEBERRY HILL Lat: -31.94 Lon: 116.05 Height: 220.0 m
Data from the previous 72 hours. | See also: Recent months at Gooseberry Hill
Date/Time
WST
Temp
°C
App
Temp
°C
Dew
Point
°C
Rel
Hum
%
Delta-T
°C
Wind Press
QNH
hPa
Press
MSL
hPa
Rain since
9am
mm
Dir  Spd
km/h
Gust
km/h
Spd
kts
Gust
kts
22/10:00am 15.2 15.7 14.9 98 0.2 NNW 6 9 3 5 - - -
22/09:30am 13.9 14.0 13.9 100 0.0 NNE 6 7 3 4 - - -
22/09:00am 12.9 13.1 12.9 100 0.0 NNE 4 6 2 3 - - -
22/08:30am 12.7 12.8 12.7 100 0.0 WNW 4 9 2 5 - - -
22/08:00am 11.2 10.4 11.2 100 0.0 NNE 6 9 3 5 - - -
22/07:30am 11.0 10.0 11.0 100 0.0 NE 7 11 4 6 - - -
22/07:00am 10.9 10.1 10.9 100 0.0 N 6 7 3 4 - - -
22/06:30am 11.0 9.5 10.4 96 0.3 NNE 9 15 5 8 - - -
22/06:00am 10.8 8.8 10.2 96 0.3 NNE 11 15 6 8 - - -
22/05:30am 10.9 8.9 10.3 96 0.3 N 11 17 6 9 - - -
22/05:00am 10.9 8.9 10.3 96 0.3 N 11 17 6 9 - - -
22/04:30am 10.8 8.9 10.5 98 0.2 N 11 17 6 9 - - -
22/04:00am 10.6 8.7 10.4 99 0.1 N 11 17 6 9 - - -
22/03:30am 10.8 8.9 10.5 98 0.2 N 11 17 6 9 - - -
22/03:00am 11.1 10.0 10.6 97 0.3 N 7 11 4 6 - - -
22/02:30am 11.1 10.5 10.5 96 0.3 N 4 6 2 3 - - -
22/02:00am 11.0 10.4 10.4 96 0.3 N 4 6 2 3 - - -
22/01:30am 11.0 10.0 10.4 96 0.3 N 6 6 3 3 - - -
22/01:00am 11.1 10.1 10.2 94 0.5 WNW 6 9 3 5 - - -
22/12:30am 11.4 10.5 10.5 94 0.5 N 6 6 3 3 - - -
22/12:00am 11.1 10.5 10.5 96 0.3 N 4 6 2 3 - - -
 
Date/Time
WST
Temp
°C
App
Temp
°C
Dew
Point
°C
Rel
Hum
%
Delta-T
°C
Wind Press
QNH
hPa
Press
MSL
hPa
Rain since
9am
mm
Dir  Spd
km/h
Gust
km/h
Spd
kts
Gust
kts
21/11:30pm 11.3 10.4 10.7 96 0.3 N 6 6 3 3 - - -
21/11:00pm 11.2 10.3 10.6 96 0.3 N 6 6 3 3 - - -
21/10:30pm 11.2 10.2 10.4 95 0.4 N 6 6 3 3 - - -
21/10:00pm 11.3 10.2 10.0 92 0.7 N 6 9 3 5 - - -
21/09:30pm 11.6 11.7 10.2 91 0.7 CALM 0 2 0 1 - - -
21/09:00pm 11.3 10.9 9.7 90 0.8 NNW 2 6 1 3 - - -
21/08:30pm 11.6 9.9 9.7 88 1.0 WSW 9 13 5 7 - - -
21/08:00pm 11.1 10.1 9.0 87 1.1 SW 4 6 2 3 - - -
21/07:30pm 11.5 9.2 8.9 84 1.3 SW 11 20 6 11 - - -
21/07:00pm 11.9 9.5 8.7 81 1.6 SSW 11 15 6 8 - - -
21/06:30pm 11.7 8.8 9.6 87 1.1 SSW 15 24 8 13 - - -
21/06:00pm 12.7 10.8 9.2 79 1.8 SW 9 13 5 7 - - -
21/05:30pm 12.6 10.4 9.2 80 1.7 SW 11 15 6 8 - - -
21/05:00pm 12.6 7.9 9.2 80 1.7 SW 24 33 13 18 - - -
21/04:30pm 14.1 9.9 7.6 65 3.2 SW 19 26 10 14 - - -
21/04:00pm 14.5 10.6 7.3 62 3.6 SW 17 26 9 14 - - -
21/03:30pm 14.9 9.8 6.0 55 4.3 SW 22 30 12 16 - - -
21/03:00pm 16.3 11.8 6.2 51 5.0 SW 19 30 10 16 - - -
21/02:30pm 15.4 10.3 6.2 54 4.5 SW 22 32 12 17 - - -
21/02:00pm 15.3 9.5 6.1 54 4.5 SW 26 35 14 19 - - -
21/01:30pm 14.8 10.1 5.9 55 4.3 SW 20 30 11 16 - - -
21/01:00pm 15.4 10.7 5.9 53 4.6 SW 20 30 11 16 - - -
21/12:30pm 15.9 12.8 7.4 57 4.3 SW 13 28 7 15 - - -
21/12:00pm 14.8 10.2 6.4 57 4.1 SW 20 32 11 17 - - -
21/11:30am 14.0 9.8 5.9 58 3.9 SSW 17 26 9 14 - - -
21/11:00am 14.4 10.4 6.5 59 3.9 SSW 17 28 9 15 - - -
21/10:30am 13.9 9.3 5.8 58 3.9 SW 19 28 10 15 - - -
21/10:00am 13.4 8.5 5.3 58 3.8 SSW 20 32 11 17 - - -
21/09:30am 13.1 8.6 6.2 63 3.3 SW 19 28 10 15 - - -
21/09:00am 12.6 8.1 6.0 64 3.1 SSW 19 32 10 17 - - -
21/08:30am 12.1 8.4 6.2 67 2.8 SSW 15 24 8 13 - - -
21/08:00am 11.4 8.4 6.1 70 2.5 SSW 11 19 6 10 - - -
21/07:30am 11.0 7.1 5.3 68 2.6 SSW 15 28 8 15 - - -
21/07:00am 10.9 6.9 5.0 67 2.7 SSW 15 24 8 13 - - -
21/06:30am 10.6 6.4 5.6 71 2.3 SSW 17 30 9 16 - - -
21/06:00am 10.8 5.9 5.3 69 2.5 SSW 20 35 11 19 - - -
21/05:30am 10.2 6.4 5.6 73 2.1 SSW 15 30 8 16 - - -
21/05:00am 10.5 6.2 5.3 70 2.4 SSW 17 26 9 14 - - -
21/04:30am 10.4 6.5 5.2 70 2.4 SSW 15 26 8 14 - - -
21/04:00am 10.4 6.8 5.0 69 2.5 SSW 13 24 7 13 - - -
21/03:30am 10.4 6.8 5.2 70 2.4 SSW 13 24 7 13 - - -
21/03:00am 10.3 6.9 5.9 74 2.1 SSW 13 20 7 11 - - -
21/02:30am 10.1 6.7 6.1 76 1.9 SSW 13 22 7 12 - - -
21/02:00am 10.1 6.8 6.3 77 1.8 SSW 13 20 7 11 - - -
21/01:30am 10.2 6.4 5.8 74 2.0 SSW 15 26 8 14 - - -
21/01:00am 10.3 6.9 6.1 75 2.0 SSW 13 20 7 11 - - -
21/12:30am 10.1 6.3 5.7 74 2.0 SSW 15 24 8 13 - - -
21/12:00am 10.0 6.0 5.0 71 2.3 SSW 15 26 8 14 - - -
 
Date/Time
WST
Temp
°C
App
Temp
°C
Dew
Point
°C
Rel
Hum
%
Delta-T
°C
Wind Press
QNH
hPa
Press
MSL
hPa
Rain since
9am
mm
Dir  Spd
km/h
Gust
km/h
Spd
kts
Gust
kts
20/11:30pm 9.9 5.5 4.9 71 2.3 SSW 17 26 9 14 - - -
20/11:00pm 9.7 5.7 4.7 71 2.3 SSW 15 22 8 12 - - -
20/10:30pm 9.6 5.6 5.0 73 2.1 SSW 15 19 8 10 - - -
20/10:00pm 9.6 5.7 5.4 75 1.9 SSW 15 24 8 13 - - -
20/09:30pm 9.7 5.9 5.7 76 1.9 SSW 15 26 8 14 - - -
20/09:00pm 9.8 6.0 5.8 76 1.9 SSW 15 26 8 14 - - -
20/08:30pm 9.9 5.8 6.4 79 1.6 SSW 17 32 9 17 - - -
20/08:00pm 9.8 5.9 7.2 84 1.2 SSW 17 30 9 16 - - -
20/07:30pm 10.0 5.3 7.6 85 1.2 SSW 22 39 12 21 - - -
20/07:00pm 10.1 7.2 8.2 88 0.9 SSW 13 20 7 11 - - -
20/06:30pm 9.9 6.0 8.5 91 0.7 SSW 19 33 10 18 - - -
20/06:00pm 10.2 4.7 9.3 94 0.5 SW 28 44 15 24 - - -
20/05:56pm 10.3 4.8 9.2 93 0.6 SW 28 44 15 24 - - -
20/05:30pm 11.2 8.2 9.1 87 1.1 SW 15 24 8 13 - - -
20/05:00pm 12.0 5.3 7.3 73 2.3 SW 32 57 17 31 - - -
20/04:59pm 12.1 5.8 7.6 74 2.2 SW 30 57 16 31 - - -
20/04:30pm 12.7 7.0 8.4 75 2.2 SW 28 44 15 24 - - -
20/04:00pm 12.1 4.5 7.4 73 2.3 SW 37 61 20 33 - - -
20/03:30pm 11.7 5.8 10.4 92 0.7 SW 32 52 17 28 - - -
20/03:03pm 12.1 6.4 9.7 85 1.2 SW 30 52 16 28 - - -
20/03:00pm 11.8 6.1 9.9 88 1.0 SW 30 43 16 23 - - -
20/02:30pm 11.9 5.2 9.6 86 1.2 SW 35 59 19 32 - - -
20/02:00pm 11.4 4.5 9.0 85 1.2 SW 35 57 19 31 - - -
20/01:35pm 13.0 5.6 8.5 74 2.3 SW 37 56 20 30 - - -
20/01:30pm 12.8 5.1 8.7 76 2.1 SW 39 56 21 30 - - -
20/01:00pm 11.5 5.2 8.9 84 1.3 SW 32 59 17 32 - - -
20/12:30pm 10.5 2.1 8.8 89 0.8 SW 43 65 23 35 - - -
20/12:00pm 12.9 5.8 8.0 72 2.4 SW 35 63 19 34 - - -
20/11:33am 14.3 7.5 6.9 61 3.6 SW 32 54 17 29 - - -
20/11:30am 14.1 7.4 7.4 64 3.3 SW 32 48 17 26 - - -
20/11:06am 11.9 5.4 8.2 78 1.8 SW 32 52 17 28 - - -
20/11:00am 11.9 5.5 8.7 81 1.6 SW 32 46 17 25 - - -
20/10:53am 11.1 4.7 8.5 84 1.3 SW 32 50 17 27 - - -
20/10:30am 11.1 3.8 7.4 78 1.8 SW 35 52 19 28 - - -
20/10:24am 10.9 2.7 8.0 82 1.4 SW 41 59 22 32 - - -
20/10:12am 11.4 4.0 6.7 73 2.3 SW 35 74 19 40 - - -
20/10:11am 11.8 5.0 7.5 75 2.1 SW 33 74 18 40 - - -
20/10:06am 12.4 5.8 7.9 74 2.2 SW 32 50 17 27 - - -
20/10:00am 12.2 5.0 7.5 73 2.3 SW 35 50 19 27 - - -
20/09:30am 10.1 4.4 8.5 90 0.8 SW 28 44 15 24 - - -
20/09:00am 9.7 4.8 8.5 92 0.6 SW 24 33 13 18 - - -
20/08:30am 9.9 5.9 9.0 94 0.4 SW 20 32 11 17 - - -
20/08:00am 9.2 5.5 8.1 93 0.5 SW 17 26 9 14 - - -
20/07:30am 8.9 3.8 7.7 92 0.6 SW 24 43 13 23 - - -
20/07:00am 8.6 4.7 7.2 91 0.7 SW 17 24 9 13 - - -
20/06:36am 8.5 2.6 7.3 92 0.6 SW 28 50 15 27 - - -
20/06:30am 8.4 3.9 7.0 91 0.7 SW 20 37 11 20 - - -
20/06:00am 8.5 4.9 6.6 88 0.9 SSW 15 24 8 13 - - -
20/05:30am 8.5 0.7 6.5 87 0.9 SW 37 65 20 35 - - -
20/05:23am 8.9 2.9 6.9 87 0.9 SW 28 65 15 35 - - -
20/05:00am 8.5 4.0 6.3 86 1.0 SW 19 30 10 16 - - -
20/04:32am 9.2 1.8 5.0 75 1.9 SW 33 63 18 34 - - -
20/04:30am 9.2 1.8 5.0 75 1.9 SW 33 50 18 27 - - -
20/04:00am 8.2 3.1 6.2 87 0.9 SW 22 32 12 17 - - -
20/03:30am 8.0 3.9 6.3 89 0.8 SW 17 24 9 13 - - -
20/03:00am 8.2 1.4 6.7 90 0.7 SW 32 46 17 25 - - -
20/02:52am 9.0 2.9 6.4 84 1.2 WSW 28 50 15 27 - - -
20/02:30am 9.3 3.1 4.5 72 2.2 WSW 26 44 14 24 - - -
20/02:00am 8.8 0.9 4.4 74 2.0 SW 35 57 19 31 - - -
20/01:31am 9.3 2.8 4.7 73 2.1 WSW 28 46 15 25 - - -
20/01:30am 9.3 3.2 4.7 73 2.1 SW 26 46 14 25 - - -
20/01:05am 9.1 2.6 4.5 73 2.1 SW 28 46 15 25 - - -
20/01:00am 8.8 3.0 4.6 75 1.9 SW 24 35 13 19 - - -
20/12:30am 7.8 3.0 4.9 82 1.3 SW 19 30 10 16 - - -
20/12:00am 7.3 2.5 5.6 89 0.8 SSW 20 37 11 20 - - -
 
Date/Time
WST
Temp
°C
App
Temp
°C
Dew
Point
°C
Rel
Hum
%
Delta-T
°C
Wind Press
QNH
hPa
Press
MSL
hPa
Rain since
9am
mm
Dir  Spd
km/h
Gust
km/h
Spd
kts
Gust
kts
19/11:45pm 7.6 -0.9 5.2 85 1.1 SW 39 78 21 42 - - -
19/11:43pm 7.8 -0.3 5.1 83 1.2 SW 37 78 20 42 - - -
19/11:42pm 8.0 0.2 4.9 81 1.4 SW 35 78 19 42 - - -
19/11:41pm 8.4 1.2 5.0 79 1.5 WSW 32 78 17 42 - - -
19/11:40pm 8.9 2.5 5.1 77 1.7 WSW 28 54 15 29 - - -
19/11:30pm 8.2 2.3 3.9 74 1.9 SW 24 37 13 20 - - -
19/11:03pm 7.5 1.9 5.5 87 0.9 SW 24 59 13 32 - - -
19/11:00pm 7.7 3.3 6.6 93 0.5 SW 19 32 10 17 - - -
19/10:30pm 7.2 3.1 6.1 93 0.5 SW 17 24 9 13 - - -
19/10:00pm 7.8 0.5 4.4 79 1.5 SW 32 52 17 28 - - -
19/09:57pm 7.8 1.3 4.6 80 1.4 SW 28 52 15 28 - - -
19/09:30pm 7.6 1.8 6.1 90 0.7 SW 26 43 14 23 - - -
19/09:11pm 7.8 2.3 6.1 89 0.8 SW 24 69 13 37 - - -
19/09:10pm 7.8 2.7 6.1 89 0.8 SW 22 56 12 30 - - -
19/09:00pm 7.9 4.1 5.7 86 1.0 SW 15 26 8 14 - - -
19/08:45pm 7.6 0.5 5.6 87 0.9 SW 32 57 17 31 - - -
19/08:39pm 7.9 -0.9 5.4 84 1.1 SW 41 65 22 35 - - -
19/08:30pm 8.5 -1.9 4.3 75 1.9 SW 48 80 26 43 - - -
19/08:28pm 9.0 -0.4 4.2 72 2.1 SW 43 80 23 43 - - -
19/08:27pm 9.5 0.5 4.3 70 2.3 WSW 41 80 22 43 - - -
19/08:26pm 10.2 1.6 4.6 68 2.5 WSW 39 76 21 41 - - -
19/08:16pm 10.2 2.3 4.1 66 2.7 SW 35 57 19 31 - - -
19/08:00pm 9.9 1.4 5.1 72 2.2 SW 39 52 21 28 - - -
19/07:30pm 10.0 2.8 5.8 75 2.0 SW 33 52 18 28 - - -
19/07:18pm 9.2 2.9 5.8 79 1.6 WSW 28 54 15 29 - - -
19/07:00pm 8.6 1.0 5.7 82 1.3 WSW 35 48 19 26 - - -
19/06:38pm 9.7 1.8 6.2 79 1.6 WSW 37 80 20 43 - - -
19/06:35pm 9.9 3.6 7.5 85 1.2 WSW 30 56 16 30 - - -
19/06:30pm 9.7 3.0 7.3 85 1.2 WSW 32 54 17 29 - - -
19/06:00pm 11.7 1.8 4.7 62 3.2 WSW 46 69 25 37 - - -
19/05:46pm 11.9 0.7 5.8 66 2.9 WSW 54 82 29 44 - - -
19/05:44pm 12.0 1.1 5.6 65 3.0 WSW 52 82 28 44 - - -
19/05:30pm 12.0 2.5 5.0 62 3.3 WSW 44 70 24 38 - - -
19/05:00pm 12.9 3.2 4.1 55 4.0 WSW 44 67 24 36 - - -
19/04:30pm 13.9 4.6 5.8 58 3.9 SW 44 72 24 39 - - -
19/04:00pm 13.7 4.0 4.0 52 4.5 WSW 44 72 24 39 - - -
19/03:30pm 13.6 2.5 4.5 54 4.2 WSW 52 70 28 38 - - -
19/03:00pm 14.4 5.5 7.0 61 3.7 WSW 43 72 23 39 - - -
19/02:45pm 14.5 6.1 7.3 62 3.6 WSW 41 69 22 37 - - -
19/02:34pm 13.2 7.7 9.3 77 2.0 WSW 28 48 15 26 - - -
19/02:30pm 13.3 8.0 9.7 79 1.9 WSW 28 43 15 23 - - -
19/02:00pm 12.4 2.0 7.7 73 2.3 WSW 52 76 28 41 - - -
19/01:57pm 13.5 4.7 7.9 69 2.8 WSW 44 74 24 40 - - -
19/01:30pm 12.3 5.8 9.1 81 1.6 WSW 33 54 18 29 - - -
19/01:00pm 14.8 8.8 7.1 60 3.8 WSW 28 48 15 26 - - -
19/12:31pm 15.3 8.1 6.1 54 4.5 WSW 33 54 18 29 - - -
19/12:30pm 15.3 8.1 5.8 53 4.6 WSW 33 52 18 28 - - -
19/12:19pm 14.9 8.6 7.5 61 3.7 WSW 30 48 16 26 - - -
19/12:00pm 14.4 6.8 6.0 57 4.1 WSW 35 54 19 29 - - -
19/11:44am 14.6 7.5 6.4 58 4.0 SW 33 56 18 30 - - -
19/11:30am 14.3 7.1 5.9 57 4.0 WSW 33 46 18 25 - - -
19/11:00am 13.9 7.6 7.2 64 3.3 SW 30 46 16 25 - - -
19/10:32am 14.7 8.8 7.7 63 3.5 SW 28 48 15 26 - - -
19/10:30am 14.6 8.6 7.2 61 3.7 WSW 28 39 15 21 - - -

Other formats

Comma delimited format used in spreadsheet applications
http://www.bom.gov.au/fwo/IDW60801/IDW60801.94615.axf

JavaScript Object Notation format (JSON) in row-major order
http://www.bom.gov.au/fwo/IDW60801/IDW60801.94615.json

Data quality

Most of these data are generated automatically and are frequently updated. Quality checks on data are not normally performed. It is possible for incorrect values to appear. Refer to information at About Latest Weather Observations and please check the disclaimer before using these data.